createdAt,value
2018-12-16T00:01:20.288Z,24.69
2018-12-16T00:03:27.082Z,24.71
2018-12-16T00:05:34.143Z,24.79
2018-12-16T00:07:41.130Z,24.87
2018-12-16T00:09:48.012Z,25.02
2018-12-16T00:11:55.771Z,25.22
2018-12-16T00:14:02.622Z,25.29
2018-12-16T00:16:09.562Z,25.51
2018-12-16T00:18:16.210Z,25.69
2018-12-16T00:20:23.049Z,25.69
2018-12-16T00:22:30.216Z,25.65
2018-12-16T00:24:36.906Z,25.53
2018-12-16T00:26:53.842Z,25.44
2018-12-16T00:29:00.478Z,25.49
2018-12-16T00:31:07.290Z,25.51
2018-12-16T00:33:14.480Z,25.56
2018-12-16T00:35:21.164Z,25.44
2018-12-16T00:37:28.046Z,25.39
2018-12-16T00:39:34.894Z,25.42
2018-12-16T00:41:41.757Z,25.29
2018-12-16T00:43:48.580Z,25.27
2018-12-16T00:45:55.634Z,25.18
2018-12-16T00:48:02.218Z,25.19
2018-12-16T00:50:09.534Z,25.05
2018-12-16T00:52:16.358Z,25.02
2018-12-16T00:54:23.365Z,24.89
2018-12-16T00:56:30.214Z,24.81
2018-12-16T00:58:37.313Z,24.91
2018-12-16T01:00:44.006Z,24.84
2018-12-16T01:02:50.873Z,24.73
2018-12-16T01:04:57.764Z,24.79
2018-12-16T01:07:04.585Z,24.88
2018-12-16T01:09:11.172Z,25.01
2018-12-16T01:11:17.902Z,25.04
2018-12-16T01:13:25.172Z,25.09
2018-12-16T01:15:32.076Z,25.12
2018-12-16T01:17:39.022Z,25.13
2018-12-16T01:19:45.745Z,24.96
2018-12-16T01:21:52.442Z,24.96
2018-12-16T01:23:59.357Z,25.00
2018-12-16T01:26:06.248Z,24.85
2018-12-16T01:28:13.711Z,24.90
2018-12-16T01:30:20.837Z,25.01
2018-12-16T01:32:27.325Z,24.82
2018-12-16T01:34:34.088Z,24.90
2018-12-16T01:36:41.069Z,24.69
2018-12-16T01:38:47.805Z,24.56
2018-12-16T01:40:54.505Z,24.46
2018-12-16T01:43:01.487Z,24.38
2018-12-16T01:45:08.226Z,24.26
2018-12-16T01:47:15.107Z,24.16
2018-12-16T01:49:22.090Z,24.13
2018-12-16T01:51:28.698Z,24.04
2018-12-16T01:53:35.501Z,23.90
2018-12-16T01:55:42.359Z,23.83
2018-12-16T01:57:49.209Z,23.78
2018-12-16T01:59:56.033Z,23.72
2018-12-16T02:02:02.862Z,23.65
2018-12-16T02:04:10.515Z,23.61
2018-12-16T02:06:17.199Z,23.70
2018-12-16T02:08:23.878Z,23.91
2018-12-16T02:10:30.938Z,24.01
2018-12-16T02:12:37.758Z,24.05
2018-12-16T02:14:44.642Z,24.09
2018-12-16T02:16:51.768Z,24.16
2018-12-16T02:18:58.553Z,24.14
2018-12-16T02:21:05.270Z,24.16
2018-12-16T02:23:11.994Z,24.02
2018-12-16T02:25:18.849Z,23.81
2018-12-16T02:27:25.318Z,23.71
2018-12-16T02:29:32.086Z,23.61
2018-12-16T02:31:39.337Z,23.53
2018-12-16T02:33:46.187Z,23.52
2018-12-16T02:35:53.038Z,23.45
2018-12-16T02:38:00.005Z,23.36
2018-12-16T02:40:06.915Z,23.34
2018-12-16T02:42:14.178Z,23.28
2018-12-16T02:44:21.281Z,23.26
2018-12-16T02:46:28.134Z,23.20
2018-12-16T02:48:35.379Z,23.16
2018-12-16T02:50:42.209Z,23.14
2018-12-16T02:52:48.923Z,23.08
2018-12-16T02:54:55.912Z,23.06
2018-12-16T02:57:02.745Z,22.98
2018-12-16T02:59:09.701Z,23.04
2018-12-16T03:01:16.514Z,23.03
2018-12-16T03:03:23.471Z,23.06
2018-12-16T03:05:30.396Z,23.05
2018-12-16T03:07:37.329Z,23.21
2018-12-16T03:09:44.112Z,23.34
2018-12-16T03:11:51.862Z,23.45
2018-12-16T03:13:58.587Z,23.52
2018-12-16T03:16:05.546Z,23.53
2018-12-16T03:18:12.366Z,23.57
2018-12-16T03:20:19.092Z,23.51
2018-12-16T03:22:25.839Z,23.51
2018-12-16T03:24:32.564Z,23.53
2018-12-16T03:26:39.414Z,23.51
2018-12-16T03:28:46.023Z,23.22
2018-12-16T03:30:53.103Z,23.11
2018-12-16T03:32:59.903Z,23.01
2018-12-16T03:35:07.040Z,23.07
2018-12-16T03:37:13.932Z,23.17
2018-12-16T03:39:20.708Z,23.08
2018-12-16T03:41:27.597Z,23.02
2018-12-16T03:43:34.439Z,23.13
2018-12-16T03:45:41.433Z,23.07
2018-12-16T03:47:48.256Z,23.05
2018-12-16T03:49:55.473Z,23.05
2018-12-16T03:52:02.402Z,23.05
2018-12-16T03:54:09.288Z,23.07
2018-12-16T03:56:16.875Z,23.00
2018-12-16T03:58:23.920Z,23.08
2018-12-16T04:00:30.770Z,23.18
2018-12-16T04:02:37.561Z,23.08
2018-12-16T04:04:44.313Z,23.07
2018-12-16T04:06:50.984Z,22.96
2018-12-16T04:08:57.910Z,23.06
2018-12-16T04:11:05.131Z,23.05
2018-12-16T04:13:11.961Z,23.10
2018-12-16T04:15:18.825Z,23.12
2018-12-16T04:17:25.704Z,23.11
2018-12-16T04:19:32.357Z,23.10
2018-12-16T04:21:39.194Z,23.03
2018-12-16T04:23:46.344Z,23.04
2018-12-16T04:25:53.025Z,23.05
2018-12-16T04:27:59.849Z,23.03
2018-12-16T04:30:07.516Z,22.92
2018-12-16T04:32:14.562Z,22.79
2018-12-16T04:34:21.238Z,22.88
2018-12-16T04:36:28.148Z,22.92
2018-12-16T04:38:34.991Z,22.89
2018-12-16T04:40:41.712Z,22.76
2018-12-16T04:42:48.472Z,22.77
2018-12-16T04:44:55.581Z,22.79
2018-12-16T04:47:02.203Z,22.81
2018-12-16T04:49:09.163Z,22.90
2018-12-16T04:51:16.059Z,22.87
2018-12-16T04:53:22.910Z,22.84
2018-12-16T04:55:29.927Z,22.85
2018-12-16T04:57:36.602Z,22.86
2018-12-16T04:59:43.689Z,22.81
2018-12-16T05:01:50.469Z,22.82
2018-12-16T05:03:57.422Z,22.82
2018-12-16T05:06:04.369Z,22.76
2018-12-16T05:08:11.471Z,22.81
2018-12-16T05:10:29.214Z,22.76
2018-12-16T05:12:36.110Z,22.78
2018-12-16T05:14:43.167Z,22.73
2018-12-16T05:16:49.936Z,22.79
2018-12-16T05:18:56.848Z,22.73
2018-12-16T05:21:03.571Z,22.71
2018-12-16T05:23:10.289Z,22.74
2018-12-16T05:25:17.182Z,22.69
2018-12-16T05:27:23.927Z,22.56
2018-12-16T05:29:30.595Z,22.61
2018-12-16T05:31:37.562Z,22.75
2018-12-16T05:33:44.358Z,22.85
2018-12-16T05:35:51.002Z,23.01
2018-12-16T05:37:57.967Z,23.14
2018-12-16T05:40:04.821Z,23.22
2018-12-16T05:42:11.809Z,23.37
2018-12-16T05:44:18.692Z,23.43
2018-12-16T05:46:25.434Z,23.36
2018-12-16T05:48:32.432Z,23.44
2018-12-16T05:50:39.381Z,23.36
2018-12-16T05:52:46.148Z,23.34
2018-12-16T05:54:52.623Z,23.31
2018-12-16T05:56:59.634Z,23.32
2018-12-16T05:59:06.492Z,23.19
2018-12-16T06:01:13.233Z,23.19
2018-12-16T06:03:20.038Z,23.15
2018-12-16T06:05:27.185Z,23.07
2018-12-16T06:07:34.011Z,23.07
2018-12-16T06:09:41.269Z,23.04
2018-12-16T06:11:48.493Z,22.99
2018-12-16T06:13:55.701Z,22.98
2018-12-16T06:16:02.726Z,22.90
2018-12-16T06:18:09.809Z,22.87
2018-12-16T06:20:16.698Z,22.89
2018-12-16T06:22:23.509Z,22.84
2018-12-16T06:24:30.542Z,22.83
2018-12-16T06:26:37.299Z,22.82
2018-12-16T06:28:43.991Z,22.79
2018-12-16T06:30:51.097Z,22.81
2018-12-16T06:32:57.826Z,22.93
2018-12-16T06:35:04.631Z,23.05
2018-12-16T06:37:11.512Z,23.18
2018-12-16T06:39:18.153Z,23.29
2018-12-16T06:41:25.248Z,23.42
2018-12-16T06:43:32.294Z,23.48
2018-12-16T06:45:39.018Z,23.43
2018-12-16T06:47:45.742Z,23.40
2018-12-16T06:49:52.483Z,23.35
2018-12-16T06:51:59.302Z,23.32
2018-12-16T06:54:06.151Z,23.31
2018-12-16T06:56:13.283Z,23.23
2018-12-16T06:58:20.568Z,23.21
2018-12-16T07:00:27.580Z,23.13
2018-12-16T07:02:34.254Z,23.06
2018-12-16T07:04:41.166Z,23.05
2018-12-16T07:06:48.361Z,23.03
2018-12-16T07:08:55.287Z,22.98
2018-12-16T07:11:02.430Z,22.96
2018-12-16T07:13:09.263Z,22.95
2018-12-16T07:15:16.141Z,22.92
2018-12-16T07:17:23.305Z,22.89
2018-12-16T07:19:30.102Z,22.83
2018-12-16T07:21:37.036Z,22.90
2018-12-16T07:23:43.808Z,22.99
2018-12-16T07:25:50.705Z,23.13
2018-12-16T07:27:57.593Z,23.25
2018-12-16T07:30:04.614Z,23.34
2018-12-16T07:32:11.438Z,23.45
2018-12-16T07:34:18.295Z,23.44
2018-12-16T07:36:25.106Z,23.40
2018-12-16T07:38:31.759Z,23.40
2018-12-16T07:40:38.698Z,23.31
2018-12-16T07:42:46.067Z,23.25
2018-12-16T07:44:53.403Z,23.18
2018-12-16T07:47:00.586Z,23.15
2018-12-16T07:49:07.171Z,23.13
2018-12-16T07:51:14.112Z,23.11
2018-12-16T07:53:20.875Z,23.00
2018-12-16T07:55:27.532Z,22.98
2018-12-16T07:57:34.525Z,22.96
2018-12-16T07:59:41.203Z,22.91
2018-12-16T08:01:48.503Z,22.91
2018-12-16T08:03:55.251Z,22.89
2018-12-16T08:06:01.962Z,22.87
2018-12-16T08:08:08.894Z,22.86
2018-12-16T08:10:16.034Z,22.78
2018-12-16T08:12:22.957Z,22.74
2018-12-16T08:14:29.741Z,22.73
2018-12-16T08:16:36.958Z,22.79
2018-12-16T08:18:44.254Z,22.93
2018-12-16T08:20:51.211Z,23.08
2018-12-16T08:22:58.719Z,23.15
2018-12-16T08:25:05.841Z,23.26
2018-12-16T08:27:12.747Z,23.38
2018-12-16T08:29:19.529Z,23.50
2018-12-16T08:31:27.065Z,23.58
2018-12-16T08:33:33.881Z,23.50
2018-12-16T08:35:40.857Z,23.47
2018-12-16T08:37:47.522Z,23.46
2018-12-16T08:39:54.320Z,23.43
2018-12-16T08:42:01.193Z,23.40
2018-12-16T08:44:08.027Z,23.31
2018-12-16T08:46:15.003Z,23.26
2018-12-16T08:48:22.007Z,23.21
2018-12-16T08:50:28.974Z,23.10
2018-12-16T08:52:35.944Z,23.09
2018-12-16T08:54:43.626Z,23.06
2018-12-16T08:56:50.713Z,23.04
2018-12-16T08:58:57.522Z,23.05
2018-12-16T09:01:04.346Z,23.00
2018-12-16T09:03:12.297Z,22.96
2018-12-16T09:05:19.145Z,22.92
2018-12-16T09:07:25.863Z,22.92
2018-12-16T09:09:32.951Z,22.88
2018-12-16T09:11:39.748Z,22.86
2018-12-16T09:13:47.427Z,22.84
2018-12-16T09:15:54.427Z,22.78
2018-12-16T09:18:00.983Z,22.73
2018-12-16T09:20:07.929Z,22.69
2018-12-16T09:22:14.784Z,22.69
2018-12-16T09:24:22.217Z,22.62
2018-12-16T09:26:29.060Z,22.52
2018-12-16T09:28:36.281Z,22.51
2018-12-16T09:30:43.241Z,22.49
2018-12-16T09:32:50.106Z,22.28
2018-12-16T09:34:56.850Z,22.44
2018-12-16T09:37:03.563Z,22.60
2018-12-16T09:39:10.984Z,22.72
2018-12-16T09:41:17.786Z,22.83
2018-12-16T09:43:24.506Z,22.96
2018-12-16T09:45:31.403Z,23.06
2018-12-16T09:47:38.290Z,23.21
2018-12-16T09:49:45.206Z,23.29
2018-12-16T09:51:52.229Z,23.37
2018-12-16T09:53:59.334Z,23.51
2018-12-16T09:56:06.090Z,23.56
2018-12-16T09:58:13.126Z,23.52
2018-12-16T10:00:19.909Z,23.48
2018-12-16T10:02:26.462Z,23.42
2018-12-16T10:04:33.662Z,23.35
2018-12-16T10:06:40.553Z,23.21
2018-12-16T10:08:47.304Z,23.16
2018-12-16T10:10:54.110Z,23.11
2018-12-16T10:13:00.870Z,23.15
2018-12-16T10:15:08.522Z,23.11
2018-12-16T10:17:15.294Z,23.03
2018-12-16T10:19:22.054Z,23.02
2018-12-16T10:21:28.798Z,22.98
2018-12-16T10:23:35.674Z,22.92
2018-12-16T10:25:43.134Z,22.91
2018-12-16T10:27:49.830Z,22.90
2018-12-16T10:29:56.556Z,22.85
2018-12-16T10:32:03.461Z,22.77
2018-12-16T10:34:10.395Z,22.76
2018-12-16T10:36:17.330Z,22.75
2018-12-16T10:38:24.411Z,22.73
2018-12-16T10:40:31.206Z,22.72
2018-12-16T10:42:37.942Z,22.81
2018-12-16T10:44:44.522Z,22.92
2018-12-16T10:46:51.963Z,23.03
2018-12-16T10:49:04.690Z,23.17
2018-12-16T10:51:08.049Z,23.33
2018-12-16T10:53:15.169Z,23.52
2018-12-16T10:55:21.818Z,23.61
2018-12-16T10:57:28.485Z,23.67
2018-12-16T10:59:35.359Z,23.66
2018-12-16T11:01:42.450Z,23.54
2018-12-16T11:03:49.367Z,23.51
2018-12-16T11:05:56.666Z,23.45
2018-12-16T11:08:03.279Z,23.42
2018-12-16T11:10:10.007Z,23.35
2018-12-16T11:12:17.596Z,23.29
2018-12-16T11:14:25.467Z,23.26
2018-12-16T11:16:32.282Z,23.21
2018-12-16T11:18:39.419Z,23.18
2018-12-16T11:20:46.221Z,23.11
2018-12-16T11:22:53.215Z,23.04
2018-12-16T11:25:05.619Z,23.00
2018-12-16T11:27:10.662Z,22.88
2018-12-16T11:29:17.394Z,22.87
2018-12-16T11:31:24.655Z,22.91
2018-12-16T11:33:31.882Z,23.06
2018-12-16T11:35:38.705Z,23.09
2018-12-16T11:37:45.602Z,23.29
2018-12-16T11:39:53.547Z,23.41
2018-12-16T11:42:00.770Z,23.46
2018-12-16T11:44:08.284Z,23.56
2018-12-16T11:46:15.355Z,23.67
2018-12-16T11:48:22.133Z,23.76
2018-12-16T11:50:29.852Z,23.66
2018-12-16T11:52:36.707Z,23.62
2018-12-16T11:54:43.926Z,23.55
2018-12-16T11:56:51.074Z,23.45
2018-12-16T11:58:57.830Z,23.37
2018-12-16T12:01:04.982Z,23.35
2018-12-16T12:03:11.910Z,23.25
2018-12-16T12:05:18.729Z,23.26
2018-12-16T12:07:25.666Z,23.13
2018-12-16T12:09:32.494Z,23.12
2018-12-16T12:11:39.635Z,23.08
2018-12-16T12:13:46.268Z,23.10
2018-12-16T12:15:53.454Z,23.06
2018-12-16T12:18:00.722Z,23.03
2018-12-16T12:20:07.775Z,23.00
2018-12-16T12:22:14.628Z,22.96
2018-12-16T12:24:21.533Z,22.95
2018-12-16T12:26:28.529Z,22.87
2018-12-16T12:28:35.629Z,22.81
2018-12-16T12:30:42.575Z,22.87
2018-12-16T12:32:49.344Z,22.95
2018-12-16T12:34:56.265Z,23.03
2018-12-16T12:37:03.168Z,23.16
2018-12-16T12:39:09.863Z,23.31
2018-12-16T12:41:16.701Z,23.40
2018-12-16T12:43:25.001Z,23.49
2018-12-16T12:45:31.990Z,23.63
2018-12-16T12:47:38.733Z,23.72
2018-12-16T12:49:45.554Z,23.81
2018-12-16T12:51:52.612Z,23.85
2018-12-16T12:53:59.415Z,23.95
2018-12-16T12:56:06.629Z,24.07
2018-12-16T12:58:13.499Z,24.21
2018-12-16T13:00:20.157Z,24.35
2018-12-16T13:02:26.850Z,24.38
2018-12-16T13:04:33.578Z,24.50
2018-12-16T13:06:40.289Z,24.57
2018-12-16T13:08:47.070Z,24.60
2018-12-16T13:10:53.887Z,24.62
2018-12-16T13:13:00.997Z,24.64
2018-12-16T13:15:07.941Z,24.66
2018-12-16T13:17:14.806Z,24.73
2018-12-16T13:19:21.382Z,24.76
2018-12-16T13:21:27.992Z,24.62
2018-12-16T13:23:35.091Z,24.85
2018-12-16T13:25:51.575Z,24.93
2018-12-16T13:27:58.409Z,24.95
2018-12-16T13:30:05.341Z,24.94
2018-12-16T13:32:12.205Z,24.99
2018-12-16T13:34:19.288Z,25.01
2018-12-16T13:36:26.270Z,25.11
2018-12-16T13:38:33.159Z,25.14
2018-12-16T13:40:39.941Z,25.30
2018-12-16T13:42:46.956Z,25.40
2018-12-16T13:44:53.435Z,25.48
2018-12-16T13:47:00.967Z,25.53
2018-12-16T13:49:07.721Z,25.45
2018-12-16T13:51:14.868Z,25.32
2018-12-16T13:53:21.512Z,25.22
2018-12-16T13:55:28.395Z,25.10
2018-12-16T13:57:36.172Z,24.92
2018-12-16T13:59:43.159Z,24.80
2018-12-16T14:01:50.002Z,24.72
2018-12-16T14:03:56.922Z,24.58
2018-12-16T14:06:04.334Z,24.54
2018-12-16T14:08:11.314Z,24.58
2018-12-16T14:10:18.286Z,24.71
2018-12-16T14:12:25.298Z,24.82
2018-12-16T14:14:32.496Z,24.91
2018-12-16T14:16:39.282Z,25.00
2018-12-16T14:18:46.182Z,25.09
2018-12-16T14:20:53.693Z,25.12
2018-12-16T14:23:00.681Z,25.08
2018-12-16T14:25:07.798Z,24.97
2018-12-16T14:27:14.609Z,24.94
2018-12-16T14:29:21.527Z,24.88
2018-12-16T14:31:28.286Z,24.77
2018-12-16T14:33:36.894Z,24.68
2018-12-16T14:35:44.983Z,24.63
2018-12-16T14:37:51.905Z,24.57
2018-12-16T14:39:59.207Z,24.58
2018-12-16T14:42:05.813Z,24.49
2018-12-16T14:44:12.802Z,24.53
2018-12-16T14:46:19.478Z,24.60
2018-12-16T14:48:26.074Z,24.77
2018-12-16T14:50:32.802Z,24.91
2018-12-16T14:52:39.900Z,25.00
2018-12-16T14:54:46.666Z,25.12
2018-12-16T14:56:53.745Z,25.19
2018-12-16T14:59:00.657Z,25.35
2018-12-16T15:01:07.656Z,25.45
2018-12-16T15:03:14.638Z,25.43
2018-12-16T15:05:21.492Z,25.40
2018-12-16T15:07:28.077Z,25.35
2018-12-16T15:09:35.018Z,25.30
2018-12-16T15:11:41.802Z,25.24
2018-12-16T15:13:49.054Z,25.19
2018-12-16T15:15:56.010Z,25.16
2018-12-16T15:18:02.886Z,25.10
2018-12-16T15:20:10.436Z,24.99
2018-12-16T15:22:17.135Z,25.01
2018-12-16T15:24:24.539Z,25.00
2018-12-16T15:26:31.227Z,24.88
2018-12-16T15:28:37.962Z,24.81
2018-12-16T15:30:44.800Z,24.76
2018-12-16T15:32:51.948Z,24.76
2018-12-16T15:34:58.566Z,24.75
2018-12-16T15:37:05.450Z,24.62
2018-12-16T15:39:12.379Z,24.58
2018-12-16T15:41:19.511Z,24.51
2018-12-16T15:43:26.337Z,24.50
2018-12-16T15:45:33.046Z,24.67
2018-12-16T15:47:40.686Z,24.84
2018-12-16T15:49:47.418Z,24.98
2018-12-16T15:51:54.173Z,25.17
2018-12-16T15:54:00.902Z,25.27
2018-12-16T15:56:09.481Z,25.36
2018-12-16T15:58:16.710Z,25.50
2018-12-16T16:00:26.881Z,25.43
2018-12-16T16:02:33.786Z,25.43
2018-12-16T16:04:40.903Z,25.45
2018-12-16T16:06:47.940Z,25.29
2018-12-16T16:08:54.904Z,25.21
2018-12-16T16:11:02.805Z,25.14
2018-12-16T16:13:10.247Z,25.13
2018-12-16T16:15:17.425Z,25.16
2018-12-16T16:17:24.442Z,25.04
2018-12-16T16:19:31.673Z,25.00
2018-12-16T16:21:39.186Z,24.86
2018-12-16T16:23:46.239Z,24.78
2018-12-16T16:25:53.013Z,24.70
2018-12-16T16:27:59.782Z,24.68
2018-12-16T16:30:07.311Z,24.65
2018-12-16T16:32:14.722Z,24.65
2018-12-16T16:34:21.479Z,24.48
2018-12-16T16:36:28.424Z,24.50
2018-12-16T16:38:35.755Z,24.43
2018-12-16T16:40:42.647Z,24.49
2018-12-16T16:42:50.169Z,24.55
2018-12-16T16:44:56.875Z,24.45
2018-12-16T16:47:04.179Z,24.53
2018-12-16T16:49:11.109Z,24.65
2018-12-16T16:51:18.299Z,24.54
2018-12-16T16:53:25.162Z,24.61
2018-12-16T16:55:32.190Z,24.73
2018-12-16T16:57:38.874Z,24.64
2018-12-16T16:59:45.880Z,24.69
2018-12-16T17:01:52.694Z,24.62
2018-12-16T17:03:59.517Z,24.75
2018-12-16T17:06:06.321Z,24.75
2018-12-16T17:08:13.558Z,24.79
2018-12-16T17:10:20.545Z,24.72
2018-12-16T17:12:27.580Z,25.03
2018-12-16T17:14:34.608Z,25.24
2018-12-16T17:16:41.613Z,25.33
2018-12-16T17:18:48.986Z,25.54
2018-12-16T17:20:56.042Z,25.75
2018-12-16T17:23:02.790Z,25.95
2018-12-16T17:25:09.799Z,26.07
2018-12-16T17:27:16.677Z,26.09
2018-12-16T17:29:23.358Z,25.89
2018-12-16T17:31:30.202Z,25.78
2018-12-16T17:33:36.971Z,25.61
2018-12-16T17:35:43.846Z,25.45
2018-12-16T17:37:50.542Z,25.44
2018-12-16T17:39:57.350Z,25.27
2018-12-16T17:42:04.642Z,25.14
2018-12-16T17:44:11.909Z,25.11
2018-12-16T17:46:19.069Z,25.21
2018-12-16T17:48:26.193Z,25.02
2018-12-16T17:50:32.995Z,24.80
2018-12-16T17:52:40.059Z,24.91
2018-12-16T17:54:46.677Z,24.84
2018-12-16T17:56:53.644Z,24.87
2018-12-16T17:59:00.438Z,24.86
2018-12-16T18:01:07.301Z,25.02
2018-12-16T18:03:15.908Z,25.23
2018-12-16T18:05:24.838Z,25.53
2018-12-16T18:07:32.893Z,25.74
2018-12-16T18:09:44.783Z,25.96
2018-12-16T18:11:55.034Z,26.11
2018-12-16T18:14:03.313Z,26.04
2018-12-16T18:16:10.664Z,25.90
2018-12-16T18:18:18.090Z,25.79
2018-12-16T18:20:25.443Z,25.63
2018-12-16T18:22:32.183Z,25.57
2018-12-16T18:24:39.088Z,25.52
2018-12-16T18:26:46.313Z,25.46
2018-12-16T18:28:52.934Z,25.35
2018-12-16T18:30:59.696Z,25.29
2018-12-16T18:33:07.462Z,25.21
2018-12-16T18:35:14.756Z,25.21
2018-12-16T18:37:21.501Z,25.17
2018-12-16T18:39:28.272Z,25.15
2018-12-16T18:41:35.433Z,25.13
2018-12-16T18:43:42.475Z,25.09
2018-12-16T18:45:49.298Z,25.09
2018-12-16T18:47:56.058Z,25.08
2018-12-16T18:50:02.809Z,25.17
2018-12-16T18:52:10.295Z,25.10
2018-12-16T18:54:17.432Z,25.12
2018-12-16T18:56:24.522Z,25.02
2018-12-16T18:58:31.442Z,25.03
2018-12-16T19:00:38.334Z,25.04
2018-12-16T19:02:45.263Z,25.05
2018-12-16T19:04:52.507Z,25.05
2018-12-16T19:06:59.239Z,25.08
2018-12-16T19:09:06.599Z,25.04
2018-12-16T19:11:13.383Z,25.08
2018-12-16T19:13:21.823Z,25.11
2018-12-16T19:15:29.294Z,25.12
2018-12-16T19:17:36.306Z,25.03
2018-12-16T19:19:43.097Z,25.06
2018-12-16T19:21:49.714Z,25.05
2018-12-16T19:23:56.794Z,25.06
2018-12-16T19:26:03.835Z,24.98
2018-12-16T19:28:11.088Z,24.97
2018-12-16T19:30:18.389Z,24.99
2018-12-16T19:32:25.187Z,24.95
2018-12-16T19:34:32.206Z,24.94
2018-12-16T19:36:38.882Z,24.93
2018-12-16T19:38:46.837Z,24.92
2018-12-16T19:40:54.329Z,24.95
2018-12-16T19:43:01.263Z,24.92
2018-12-16T19:45:08.735Z,24.89
2018-12-16T19:47:15.619Z,24.93
2018-12-16T19:49:22.460Z,24.89
2018-12-16T19:51:29.270Z,24.85
2018-12-16T19:53:36.322Z,24.88
2018-12-16T19:55:43.392Z,24.85
2018-12-16T19:57:50.245Z,24.82
2018-12-16T19:59:57.262Z,24.77
2018-12-16T20:02:04.162Z,24.76
2018-12-16T20:04:15.717Z,24.72
2018-12-16T20:06:27.192Z,24.72
2018-12-16T20:08:33.913Z,24.71
2018-12-16T20:10:40.723Z,24.72
2018-12-16T20:12:47.701Z,24.69
2018-12-16T20:14:54.281Z,24.64
2018-12-16T20:17:01.037Z,24.68
2018-12-16T20:19:08.116Z,24.55
2018-12-16T20:21:15.325Z,24.56
2018-12-16T20:23:21.945Z,24.58
2018-12-16T20:25:28.741Z,24.53
2018-12-16T20:27:35.706Z,24.53
2018-12-16T20:29:42.527Z,24.52
2018-12-16T20:31:49.630Z,24.52
2018-12-16T20:33:56.442Z,24.50
2018-12-16T20:36:03.154Z,24.41
2018-12-16T20:38:10.716Z,24.35
2018-12-16T20:40:17.830Z,24.36
2018-12-16T20:42:24.893Z,24.33
2018-12-16T20:44:32.061Z,24.29
2018-12-16T20:46:39.364Z,24.30
2018-12-16T20:48:46.331Z,24.40
2018-12-16T20:50:53.439Z,24.30
2018-12-16T20:53:00.230Z,24.46
2018-12-16T20:55:07.618Z,24.42
2018-12-16T20:57:18.851Z,24.29
2018-12-16T20:59:23.626Z,24.25
2018-12-16T21:01:30.537Z,24.28
2018-12-16T21:03:37.485Z,24.27
2018-12-16T21:05:44.326Z,24.22
2018-12-16T21:07:51.265Z,24.18
2018-12-16T21:09:58.078Z,24.11
2018-12-16T21:12:07.184Z,24.04
2018-12-16T21:14:20.245Z,24.05
2018-12-16T21:16:31.494Z,23.96
2018-12-16T21:18:38.554Z,24.08
2018-12-16T21:20:45.938Z,24.02
2018-12-16T21:22:52.901Z,24.03
2018-12-16T21:24:59.830Z,23.91
2018-12-16T21:27:07.073Z,23.91
2018-12-16T21:29:14.004Z,23.91
2018-12-16T21:31:20.768Z,23.84
2018-12-16T21:33:27.642Z,23.84
2018-12-16T21:35:34.598Z,23.86
2018-12-16T21:37:41.668Z,23.87
2018-12-16T21:39:48.510Z,23.86
2018-12-16T21:41:55.268Z,23.86
2018-12-16T21:44:02.255Z,23.89
2018-12-16T21:46:09.268Z,23.87
2018-12-16T21:48:17.073Z,23.86
2018-12-16T21:50:23.974Z,23.84
2018-12-16T21:52:30.535Z,23.80
2018-12-16T21:54:37.442Z,23.78
2018-12-16T21:56:44.435Z,23.78
2018-12-16T21:58:51.499Z,23.79
2018-12-16T22:00:58.507Z,23.80
2018-12-16T22:03:05.116Z,23.73
2018-12-16T22:05:13.806Z,23.67
2018-12-16T22:07:20.750Z,23.69
2018-12-16T22:09:27.802Z,23.69
2018-12-16T22:11:34.964Z,23.70
2018-12-16T22:13:41.757Z,23.74
2018-12-16T22:15:48.840Z,23.77
2018-12-16T22:17:55.682Z,23.67
2018-12-16T22:20:02.655Z,23.59
2018-12-16T22:22:09.494Z,23.56
2018-12-16T22:24:16.450Z,23.53
2018-12-16T22:26:23.302Z,23.55
2018-12-16T22:28:30.011Z,23.51
2018-12-16T22:30:36.889Z,23.47
2018-12-16T22:32:43.808Z,23.49
2018-12-16T22:34:50.619Z,23.46
2018-12-16T22:36:57.493Z,23.44
2018-12-16T22:39:04.902Z,23.40
2018-12-16T22:41:11.618Z,23.40
2018-12-16T22:43:18.423Z,23.47
2018-12-16T22:45:25.052Z,23.44
2018-12-16T22:47:31.895Z,23.51
2018-12-16T22:49:39.557Z,23.50
2018-12-16T22:51:46.208Z,23.46
2018-12-16T22:53:53.037Z,23.48
2018-12-16T22:55:59.825Z,23.35
2018-12-16T22:58:06.920Z,23.37
2018-12-16T23:00:17.980Z,23.35
2018-12-16T23:02:24.678Z,23.43
2018-12-16T23:04:32.257Z,23.31
2018-12-16T23:06:39.065Z,23.29
2018-12-16T23:08:45.878Z,23.27
2018-12-16T23:10:52.808Z,23.27
2018-12-16T23:12:59.481Z,23.24
2018-12-16T23:15:06.395Z,23.17
2018-12-16T23:17:13.158Z,23.19
2018-12-16T23:19:20.134Z,23.14
2018-12-16T23:21:27.270Z,23.13
2018-12-16T23:23:34.409Z,23.17
2018-12-16T23:25:41.202Z,23.20
2018-12-16T23:27:53.997Z,23.15
2018-12-16T23:29:56.871Z,23.19
2018-12-16T23:32:03.693Z,23.12
2018-12-16T23:34:10.690Z,23.03
2018-12-16T23:36:17.414Z,23.12
2018-12-16T23:38:24.163Z,23.12
2018-12-16T23:40:30.821Z,23.05
2018-12-16T23:42:37.482Z,23.11
2018-12-16T23:44:44.932Z,23.14
2018-12-16T23:46:51.801Z,23.01
2018-12-16T23:48:58.670Z,23.16
2018-12-16T23:51:05.659Z,23.12
2018-12-16T23:53:12.254Z,23.09
2018-12-16T23:55:19.026Z,23.00
2018-12-16T23:57:25.808Z,23.04
2018-12-16T23:59:32.749Z,23.03
